createdAt,value
2023-02-19T00:01:13.390Z,61.87
2023-02-19T00:03:41.205Z,61.93
2023-02-19T00:06:10.622Z,63.33
2023-02-19T00:08:38.796Z,63.59
2023-02-19T00:11:17.860Z,63.98
2023-02-19T00:13:47.990Z,64.47
2023-02-19T00:16:23.138Z,64.91
2023-02-19T00:18:50.546Z,65.26
2023-02-19T00:21:17.972Z,64.84
2023-02-19T00:23:49.246Z,65.35
2023-02-19T00:26:18.475Z,65.29
2023-02-19T00:28:49.845Z,65.39
2023-02-19T00:31:22.825Z,65.40
2023-02-19T00:33:51.969Z,65.49
2023-02-19T00:36:19.137Z,65.83
2023-02-19T00:38:46.292Z,66.36
2023-02-19T00:41:20.323Z,66.64
2023-02-19T00:43:57.383Z,67.40
2023-02-19T00:46:30.297Z,66.71
2023-02-19T00:48:57.819Z,67.10
2023-02-19T00:51:27.305Z,67.05
2023-02-19T00:53:54.238Z,64.16
2023-02-19T00:56:21.298Z,64.24
2023-02-19T00:58:48.845Z,64.46
2023-02-19T01:01:16.410Z,66.18
2023-02-19T01:03:43.572Z,65.99
2023-02-19T01:06:13.019Z,67.34
2023-02-19T01:08:39.691Z,69.51
2023-02-19T01:11:07.644Z,71.78
2023-02-19T01:13:34.685Z,73.55
2023-02-19T01:16:04.094Z,76.55
2023-02-19T01:18:32.184Z,78.31
2023-02-19T01:20:59.086Z,79.99
2023-02-19T01:23:26.172Z,82.56
2023-02-19T01:25:52.809Z,80.80
2023-02-19T01:28:19.562Z,79.98
2023-02-19T01:30:46.189Z,82.79
2023-02-19T01:33:12.751Z,85.40
2023-02-19T01:35:40.025Z,85.43
2023-02-19T01:38:08.317Z,85.33
2023-02-19T01:40:35.006Z,84.44
2023-02-19T01:43:01.649Z,82.74
2023-02-19T01:45:31.026Z,80.64
2023-02-19T01:48:07.996Z,77.92
2023-02-19T01:50:40.403Z,76.63
2023-02-19T01:53:11.219Z,76.42
2023-02-19T01:55:39.417Z,75.44
2023-02-19T01:58:06.510Z,75.00
2023-02-19T02:00:34.468Z,73.87
2023-02-19T02:03:01.828Z,75.03
2023-02-19T02:05:50.967Z,72.46
2023-02-19T02:08:37.102Z,69.22
2023-02-19T02:11:04.717Z,69.28
2023-02-19T02:13:33.928Z,73.14
2023-02-19T02:16:16.854Z,74.18
2023-02-19T02:19:15.377Z,79.12
2023-02-19T02:22:00.329Z,79.72
2023-02-19T02:24:45.741Z,80.96
2023-02-19T02:27:36.882Z,86.18
2023-02-19T02:30:27.458Z,86.91
2023-02-19T02:33:05.851Z,87.42
2023-02-19T02:35:42.794Z,84.95
2023-02-19T02:38:13.132Z,82.45
2023-02-19T02:40:43.087Z,77.12
2023-02-19T02:43:09.883Z,77.33
2023-02-19T02:45:36.935Z,75.86
2023-02-19T02:48:07.716Z,69.33
2023-02-19T02:51:03.280Z,67.93
2023-02-19T02:53:59.025Z,66.75
2023-02-19T02:56:26.640Z,64.86
2023-02-19T02:58:56.544Z,64.25
2023-02-19T03:01:48.227Z,64.04
2023-02-19T03:04:27.472Z,64.58
2023-02-19T03:06:55.396Z,64.73
2023-02-19T03:09:40.727Z,65.28
2023-02-19T03:12:32.035Z,69.63
2023-02-19T03:15:21.757Z,69.41
2023-02-19T03:18:11.285Z,70.20
2023-02-19T03:20:43.365Z,72.75
2023-02-19T03:23:11.881Z,74.28
2023-02-19T03:25:58.697Z,76.89
2023-02-19T03:28:48.946Z,78.43
2023-02-19T03:31:20.915Z,79.47
2023-02-19T03:33:52.567Z,79.20
2023-02-19T03:36:27.429Z,80.12
2023-02-19T03:39:04.457Z,80.62
2023-02-19T03:41:49.037Z,79.57
2023-02-19T03:44:18.313Z,80.03
2023-02-19T03:47:03.573Z,79.00
2023-02-19T03:49:42.534Z,78.21
2023-02-19T03:52:28.746Z,77.50
2023-02-19T03:55:09.612Z,77.65
2023-02-19T03:57:51.844Z,76.69
2023-02-19T04:00:24.850Z,76.28
2023-02-19T04:03:02.882Z,78.28
2023-02-19T04:05:32.168Z,74.76
2023-02-19T04:08:06.376Z,74.30
2023-02-19T04:10:33.388Z,72.45
2023-02-19T04:13:06.504Z,70.83
2023-02-19T04:15:35.276Z,71.02
2023-02-19T04:18:09.094Z,70.86
2023-02-19T04:20:42.401Z,70.40
2023-02-19T04:23:09.496Z,68.54
2023-02-19T04:25:38.221Z,67.86
2023-02-19T04:28:05.316Z,67.33
2023-02-19T04:30:32.063Z,68.53
2023-02-19T04:32:58.671Z,66.68
2023-02-19T04:35:25.227Z,66.17
2023-02-19T04:37:51.870Z,66.90
2023-02-19T04:40:18.575Z,69.39
2023-02-19T04:42:45.195Z,70.48
2023-02-19T04:45:11.775Z,70.45
2023-02-19T04:47:38.380Z,70.19
2023-02-19T04:50:05.265Z,71.04
2023-02-19T04:52:33.344Z,71.30
2023-02-19T04:54:59.964Z,70.88
2023-02-19T04:57:26.662Z,70.07
2023-02-19T04:59:53.573Z,70.14
2023-02-19T05:02:20.302Z,70.13
2023-02-19T05:04:46.843Z,70.22
2023-02-19T05:07:13.606Z,70.03
2023-02-19T05:09:40.230Z,69.30
2023-02-19T05:12:07.082Z,68.64
2023-02-19T05:14:33.834Z,68.14
2023-02-19T05:17:00.409Z,67.67
2023-02-19T05:19:27.107Z,66.71
2023-02-19T05:21:53.758Z,66.55
2023-02-19T05:24:20.503Z,66.23
2023-02-19T05:26:48.301Z,66.02
2023-02-19T05:29:14.903Z,64.19
2023-02-19T05:31:41.690Z,64.05
2023-02-19T05:34:08.390Z,63.46
2023-02-19T05:36:34.939Z,61.19
2023-02-19T05:39:01.685Z,60.44
2023-02-19T05:41:30.678Z,59.77
2023-02-19T05:43:58.028Z,59.37
2023-02-19T05:46:27.376Z,58.65
2023-02-19T05:48:54.467Z,57.96
2023-02-19T05:51:23.555Z,58.01
2023-02-19T05:53:51.202Z,57.60
2023-02-19T05:56:23.737Z,57.44
2023-02-19T05:58:50.397Z,56.44
2023-02-19T06:01:19.252Z,56.21
2023-02-19T06:03:46.022Z,55.60
2023-02-19T06:06:14.526Z,55.14
2023-02-19T06:08:41.279Z,54.57
2023-02-19T06:11:08.264Z,54.52
2023-02-19T06:13:35.264Z,54.49
2023-02-19T06:16:06.218Z,55.09
2023-02-19T06:18:33.006Z,56.17
2023-02-19T06:21:04.617Z,55.99
2023-02-19T06:23:31.945Z,55.86
2023-02-19T06:26:10.075Z,55.43
2023-02-19T06:28:37.126Z,55.57
2023-02-19T06:31:05.112Z,55.06
2023-02-19T06:33:32.365Z,55.60
2023-02-19T06:36:01.697Z,55.69
2023-02-19T06:38:28.799Z,55.69
2023-02-19T06:40:55.775Z,55.55
2023-02-19T06:43:22.395Z,54.70
2023-02-19T06:45:49.081Z,54.33
2023-02-19T06:48:15.795Z,53.45
2023-02-19T06:50:42.400Z,52.78
2023-02-19T06:53:10.085Z,53.13
2023-02-19T06:55:36.713Z,52.22
2023-02-19T06:58:03.268Z,51.35
2023-02-19T07:00:30.078Z,51.56
2023-02-19T07:02:56.766Z,52.29
2023-02-19T07:05:23.559Z,51.57
2023-02-19T07:07:50.187Z,51.49
2023-02-19T07:10:17.281Z,50.78
2023-02-19T07:12:43.992Z,50.49
2023-02-19T07:15:10.704Z,49.96
2023-02-19T07:17:37.321Z,49.52
2023-02-19T07:20:04.238Z,49.06
2023-02-19T07:22:30.856Z,48.68
2023-02-19T07:24:57.459Z,48.69
2023-02-19T07:27:24.172Z,47.80
2023-02-19T07:29:50.987Z,48.80
2023-02-19T07:32:17.607Z,48.41
2023-02-19T07:34:44.286Z,48.17
2023-02-19T07:37:11.166Z,48.49
2023-02-19T07:39:38.954Z,48.68
2023-02-19T07:42:05.908Z,49.59
2023-02-19T07:44:32.610Z,49.29
2023-02-19T07:46:59.598Z,49.27
2023-02-19T07:49:26.231Z,48.88
2023-02-19T07:51:52.846Z,47.70
2023-02-19T07:54:19.714Z,47.47
2023-02-19T07:56:46.575Z,47.10
2023-02-19T07:59:13.350Z,46.31
2023-02-19T08:01:58.703Z,46.42
2023-02-19T08:04:26.123Z,45.29
2023-02-19T08:06:53.351Z,44.80
2023-02-19T08:09:20.416Z,44.59
2023-02-19T08:12:05.995Z,44.55
2023-02-19T08:14:33.686Z,44.82
2023-02-19T08:17:01.563Z,44.00
2023-02-19T08:19:28.282Z,44.11
2023-02-19T08:21:55.029Z,43.82
2023-02-19T08:24:21.663Z,43.86
2023-02-19T08:26:48.355Z,43.86
2023-02-19T08:29:16.352Z,43.24
2023-02-19T08:31:43.086Z,43.60
2023-02-19T08:34:09.958Z,43.67
2023-02-19T08:36:36.703Z,43.40
2023-02-19T08:39:06.304Z,43.19
2023-02-19T08:41:32.940Z,42.64
2023-02-19T08:43:59.515Z,42.92
2023-02-19T08:46:26.254Z,42.83
2023-02-19T08:48:52.964Z,43.31
2023-02-19T08:51:29.524Z,43.20
2023-02-19T08:53:56.617Z,43.33
2023-02-19T08:56:23.414Z,43.51
2023-02-19T08:58:50.404Z,43.33
2023-02-19T09:01:18.839Z,43.44
2023-02-19T09:03:45.785Z,42.93
2023-02-19T09:06:20.540Z,43.38
2023-02-19T09:08:47.305Z,43.44
2023-02-19T09:11:15.073Z,44.03
2023-02-19T09:13:41.961Z,42.90
2023-02-19T09:16:08.960Z,42.07
2023-02-19T09:18:36.506Z,42.79
2023-02-19T09:21:05.483Z,42.89
2023-02-19T09:23:36.642Z,43.06
2023-02-19T09:26:06.824Z,43.22
2023-02-19T09:28:33.436Z,43.16
2023-02-19T09:31:08.404Z,42.52
2023-02-19T09:33:35.620Z,42.43
2023-02-19T09:36:03.013Z,42.44
2023-02-19T09:38:34.046Z,41.51
2023-02-19T09:41:07.944Z,41.28
2023-02-19T09:43:35.641Z,41.37
2023-02-19T09:46:26.331Z,41.60
2023-02-19T09:49:03.683Z,41.83
2023-02-19T09:51:33.950Z,41.14
2023-02-19T09:54:04.320Z,41.36
2023-02-19T09:56:31.404Z,41.76
2023-02-19T09:59:02.000Z,40.95
2023-02-19T10:01:33.591Z,41.01
2023-02-19T10:04:04.056Z,39.68
2023-02-19T10:06:32.740Z,39.87
2023-02-19T10:09:24.125Z,39.53
2023-02-19T10:11:52.660Z,40.09
2023-02-19T10:14:35.500Z,40.29
2023-02-19T10:17:05.480Z,40.32
2023-02-19T10:19:48.009Z,39.72
2023-02-19T10:22:14.640Z,39.39
2023-02-19T10:24:42.853Z,39.82
2023-02-19T10:27:14.947Z,39.45
2023-02-19T10:29:48.048Z,38.68
2023-02-19T10:32:24.315Z,38.40
2023-02-19T10:35:14.128Z,38.73
2023-02-19T10:37:50.654Z,38.34
2023-02-19T10:40:23.550Z,38.09
2023-02-19T10:42:59.616Z,37.91
2023-02-19T10:45:47.677Z,37.67
2023-02-19T10:48:28.353Z,37.84
2023-02-19T10:51:05.065Z,37.76
2023-02-19T10:53:50.701Z,37.65
2023-02-19T10:56:29.833Z,37.50
2023-02-19T10:59:16.399Z,37.09
2023-02-19T11:02:01.804Z,37.19
2023-02-19T11:04:35.200Z,36.89
2023-02-19T11:07:17.083Z,36.45
2023-02-19T11:09:53.559Z,36.33
2023-02-19T11:12:29.904Z,36.32
2023-02-19T11:14:57.023Z,36.46
2023-02-19T11:17:29.334Z,35.52
2023-02-19T11:19:58.830Z,35.51
2023-02-19T11:22:42.114Z,36.33
2023-02-19T11:25:15.482Z,35.83
2023-02-19T11:28:08.058Z,36.04
2023-02-19T11:30:38.546Z,35.46
2023-02-19T11:33:17.290Z,35.19
2023-02-19T11:35:47.932Z,34.92
2023-02-19T11:38:19.711Z,34.20
2023-02-19T11:41:04.995Z,34.24
2023-02-19T11:43:50.372Z,33.65
2023-02-19T11:46:28.773Z,34.08
2023-02-19T11:49:34.086Z,33.67
2023-02-19T11:52:34.194Z,33.34
2023-02-19T11:55:20.962Z,33.71
2023-02-19T11:57:58.919Z,33.59
2023-02-19T12:00:29.168Z,32.99
2023-02-19T12:03:32.027Z,32.96
2023-02-19T12:06:12.678Z,32.78
2023-02-19T12:09:15.119Z,32.19
2023-02-19T12:12:21.816Z,32.02
2023-02-19T12:15:49.003Z,33.00
2023-02-19T12:18:28.726Z,32.24
2023-02-19T12:21:04.723Z,32.34
2023-02-19T12:23:45.896Z,32.16
2023-02-19T12:26:25.054Z,31.40
2023-02-19T12:29:12.615Z,31.44
2023-02-19T12:31:56.362Z,31.15
2023-02-19T12:34:32.212Z,31.53
2023-02-19T12:37:11.744Z,30.93
2023-02-19T12:39:49.677Z,30.52
2023-02-19T12:42:34.849Z,30.40
2023-02-19T12:45:07.337Z,30.85
2023-02-19T12:47:40.886Z,31.11
2023-02-19T12:50:21.870Z,31.01
2023-02-19T12:53:14.396Z,31.02
2023-02-19T12:55:45.331Z,31.06
2023-02-19T12:58:21.891Z,30.68
2023-02-19T13:00:53.373Z,30.56
2023-02-19T13:03:34.904Z,30.62
2023-02-19T13:06:04.576Z,29.63
2023-02-19T13:11:37.767Z,29.47
2023-02-19T13:14:21.822Z,30.28
2023-02-19T13:16:55.890Z,30.06
2023-02-19T13:19:22.551Z,30.45
2023-02-19T13:22:22.247Z,30.41
2023-02-19T13:24:50.973Z,30.24
2023-02-19T13:30:32.648Z,30.14
2023-02-19T13:33:32.386Z,29.76
2023-02-19T13:36:24.135Z,29.41
2023-02-19T13:38:57.763Z,29.83
2023-02-19T13:41:28.763Z,30.04
2023-02-19T13:43:59.620Z,30.92
2023-02-19T13:46:40.624Z,30.34
2023-02-19T13:49:29.205Z,30.69
2023-02-19T13:51:56.995Z,30.21
2023-02-19T13:54:31.474Z,30.03
2023-02-19T13:57:19.811Z,30.37
2023-02-19T13:59:48.282Z,30.31
2023-02-19T14:02:21.307Z,30.73
2023-02-19T14:04:51.976Z,30.72
2023-02-19T14:07:19.006Z,30.95
2023-02-19T14:09:47.206Z,31.05
2023-02-19T14:12:15.907Z,31.43
2023-02-19T14:14:47.114Z,31.65
2023-02-19T14:17:29.376Z,31.73
2023-02-19T14:20:22.881Z,31.55
2023-02-19T14:23:01.593Z,31.62
2023-02-19T14:25:31.192Z,31.57
2023-02-19T14:28:06.823Z,31.92
2023-02-19T14:30:35.328Z,31.52
2023-02-19T14:33:15.786Z,31.80
2023-02-19T14:35:45.529Z,30.33
2023-02-19T14:38:24.233Z,30.95
2023-02-19T14:40:54.608Z,33.00
2023-02-19T14:43:24.552Z,33.52
2023-02-19T14:46:04.644Z,34.38
2023-02-19T14:48:37.135Z,34.27
2023-02-19T14:51:08.962Z,34.43
2023-02-19T14:53:42.133Z,34.74
2023-02-19T14:56:21.448Z,34.71
2023-02-19T14:59:17.186Z,34.83
2023-02-19T15:01:44.463Z,34.49
2023-02-19T15:04:37.576Z,34.52
2023-02-19T15:07:08.804Z,35.28
2023-02-19T15:09:43.804Z,35.86
2023-02-19T15:12:26.289Z,36.58
2023-02-19T15:15:01.407Z,35.78
2023-02-19T15:17:31.844Z,35.91
2023-02-19T15:20:03.253Z,36.27
2023-02-19T15:22:33.928Z,36.68
2023-02-19T15:25:05.375Z,36.98
2023-02-19T15:27:33.009Z,37.93
2023-02-19T15:29:59.887Z,36.93
2023-02-19T15:32:28.159Z,37.51
2023-02-19T15:35:00.491Z,37.13
2023-02-19T15:37:31.098Z,37.85
2023-02-19T15:40:00.681Z,37.83
2023-02-19T15:43:38.622Z,37.83
2023-02-19T15:47:10.697Z,38.41
2023-02-19T15:52:50.276Z,38.82
2023-02-19T15:55:27.185Z,39.41
2023-02-19T15:58:28.942Z,39.65
2023-02-19T16:01:03.645Z,39.78
2023-02-19T16:03:35.419Z,40.00
2023-02-19T16:06:11.549Z,40.21
2023-02-19T16:08:43.562Z,40.54
2023-02-19T16:11:22.474Z,40.71
2023-02-19T16:13:52.534Z,41.43
2023-02-19T16:16:34.946Z,41.78
2023-02-19T16:19:02.457Z,41.99
2023-02-19T16:21:29.418Z,42.17
2023-02-19T16:24:13.923Z,42.22
2023-02-19T16:26:42.239Z,42.46
2023-02-19T16:29:27.828Z,42.86
2023-02-19T16:31:58.142Z,43.15
2023-02-19T16:34:49.313Z,42.65
2023-02-19T16:37:41.202Z,42.91
2023-02-19T16:40:08.014Z,42.79
2023-02-19T16:42:36.264Z,43.15
2023-02-19T16:45:03.157Z,42.66
2023-02-19T16:47:32.162Z,42.70
2023-02-19T16:50:01.774Z,43.17
2023-02-19T16:52:29.364Z,43.83
2023-02-19T16:54:56.451Z,43.87
2023-02-19T16:57:23.439Z,43.17
2023-02-19T16:59:50.481Z,43.30
2023-02-19T17:02:21.358Z,43.28
2023-02-19T17:04:49.387Z,43.33
2023-02-19T17:07:18.584Z,43.17
2023-02-19T17:09:45.365Z,42.75
2023-02-19T17:12:20.013Z,43.03
2023-02-19T17:14:47.257Z,43.05
2023-02-19T17:17:14.166Z,43.58
2023-02-19T17:19:41.100Z,43.85
2023-02-19T17:22:19.456Z,43.91
2023-02-19T17:24:47.570Z,43.40
2023-02-19T17:27:17.680Z,43.56
2023-02-19T17:29:50.343Z,43.28
2023-02-19T17:32:40.096Z,43.19
2023-02-19T17:35:15.917Z,44.03
2023-02-19T17:37:56.918Z,43.05
2023-02-19T17:40:39.608Z,42.99
2023-02-19T17:46:27.864Z,42.51
2023-02-19T17:49:10.616Z,42.40
2023-02-19T17:51:38.833Z,42.55
2023-02-19T17:54:08.351Z,42.47
2023-02-19T17:57:01.115Z,42.69
2023-02-19T17:59:32.219Z,42.91
2023-02-19T18:02:12.652Z,42.74
2023-02-19T18:04:41.105Z,43.11
2023-02-19T18:07:08.018Z,43.24
2023-02-19T18:09:34.831Z,43.20
2023-02-19T18:12:02.657Z,43.46
2023-02-19T18:14:32.242Z,43.36
2023-02-19T18:16:59.180Z,43.89
2023-02-19T18:19:26.188Z,43.80
2023-02-19T18:21:53.240Z,43.85
2023-02-19T18:24:20.079Z,44.20
2023-02-19T18:26:46.884Z,44.29
2023-02-19T18:29:13.802Z,44.54
2023-02-19T18:31:44.617Z,44.65
2023-02-19T18:34:19.115Z,45.01
2023-02-19T18:36:47.634Z,44.76
2023-02-19T18:39:14.770Z,45.11
2023-02-19T18:41:41.596Z,44.84
2023-02-19T18:44:23.733Z,44.75
2023-02-19T18:46:51.177Z,44.88
2023-02-19T18:49:18.494Z,45.81
2023-02-19T18:51:46.901Z,45.13
2023-02-19T18:54:14.303Z,45.25
2023-02-19T18:56:46.150Z,45.14
2023-02-19T18:59:13.768Z,45.96
2023-02-19T19:01:40.705Z,45.70
2023-02-19T19:04:07.871Z,45.62
2023-02-19T19:06:35.910Z,45.91
2023-02-19T19:09:03.896Z,46.26
2023-02-19T19:11:31.079Z,46.45
2023-02-19T19:13:58.125Z,46.60
2023-02-19T19:16:29.929Z,46.60
2023-02-19T19:18:57.024Z,46.58
2023-02-19T19:21:24.033Z,46.65
2023-02-19T19:23:51.092Z,46.90
2023-02-19T19:26:17.873Z,47.30
2023-02-19T19:28:44.995Z,47.47
2023-02-19T19:31:13.023Z,48.27
2023-02-19T19:33:43.828Z,47.95
2023-02-19T19:36:11.684Z,48.32
2023-02-19T19:38:39.238Z,48.52
2023-02-19T19:41:06.050Z,48.65
2023-02-19T19:43:33.629Z,48.34
2023-02-19T19:46:03.875Z,48.45
2023-02-19T19:48:33.874Z,49.08
2023-02-19T19:51:03.472Z,49.32
2023-02-19T19:53:30.346Z,49.48
2023-02-19T19:55:57.676Z,49.60
2023-02-19T19:58:27.225Z,49.93
2023-02-19T20:00:54.435Z,49.95
2023-02-19T20:03:23.465Z,50.59
2023-02-19T20:05:51.286Z,50.23
2023-02-19T20:08:18.351Z,50.50
2023-02-19T20:10:45.530Z,51.30
2023-02-19T20:13:15.717Z,51.08
2023-02-19T20:15:42.389Z,51.26
2023-02-19T20:18:09.586Z,51.76
2023-02-19T20:20:36.354Z,52.18
2023-02-19T20:23:03.358Z,51.92
2023-02-19T20:25:30.158Z,52.41
2023-02-19T20:27:57.041Z,52.04
2023-02-19T20:30:24.835Z,52.09
2023-02-19T20:32:52.210Z,51.88
2023-02-19T20:35:22.073Z,51.55
2023-02-19T20:37:49.574Z,51.71
2023-02-19T20:41:03.383Z,51.98
2023-02-19T20:43:34.755Z,51.88
2023-02-19T20:46:32.493Z,51.97
2023-02-19T20:49:08.781Z,52.10
2023-02-19T20:51:47.643Z,51.90
2023-02-19T20:54:18.642Z,52.13
2023-02-19T20:56:55.531Z,52.01
2023-02-19T20:59:28.866Z,52.83
2023-02-19T21:02:19.328Z,52.58
2023-02-19T21:04:48.826Z,52.62
2023-02-19T21:07:15.842Z,53.04
2023-02-19T21:09:53.236Z,52.85
2023-02-19T21:12:22.318Z,53.15
2023-02-19T21:14:49.593Z,53.50
2023-02-19T21:17:16.943Z,53.30
2023-02-19T21:19:50.144Z,53.87
2023-02-19T21:22:24.263Z,54.21
2023-02-19T21:24:53.039Z,54.79
2023-02-19T21:27:20.966Z,55.10
2023-02-19T21:29:48.793Z,55.02
2023-02-19T21:32:16.870Z,55.59
2023-02-19T21:34:43.757Z,55.57
2023-02-19T21:37:13.905Z,55.43
2023-02-19T21:39:57.900Z,56.50
2023-02-19T21:45:32.646Z,57.23
2023-02-19T21:47:59.414Z,57.83
2023-02-19T21:50:26.081Z,58.00
2023-02-19T21:52:52.938Z,59.46
2023-02-19T21:55:19.541Z,59.92
2023-02-19T21:57:46.100Z,59.54
2023-02-19T22:00:13.480Z,60.02
2023-02-19T22:02:40.126Z,59.75
2023-02-19T22:05:07.124Z,59.26
2023-02-19T22:07:33.829Z,59.46
2023-02-19T22:10:00.422Z,59.34
2023-02-19T22:12:26.999Z,58.77
2023-02-19T22:14:53.602Z,58.28
2023-02-19T22:17:20.725Z,58.70
2023-02-19T22:19:47.357Z,58.95
2023-02-19T22:22:14.827Z,59.21
2023-02-19T22:24:41.501Z,59.53
2023-02-19T22:27:08.159Z,59.58
2023-02-19T22:29:34.897Z,59.49
2023-02-19T22:32:01.590Z,58.80
2023-02-19T22:34:28.255Z,58.99
2023-02-19T22:36:54.856Z,59.19
2023-02-19T22:39:25.568Z,59.44
2023-02-19T22:41:53.586Z,59.35
2023-02-19T22:44:20.516Z,59.89
2023-02-19T22:46:55.467Z,61.70
2023-02-19T22:49:23.163Z,61.26
2023-02-19T22:51:53.600Z,62.21
2023-02-19T22:54:25.011Z,63.46
2023-02-19T22:56:51.725Z,64.06
2023-02-19T22:59:18.340Z,64.23
2023-02-19T23:01:44.934Z,64.40
2023-02-19T23:04:11.699Z,64.73
2023-02-19T23:06:41.516Z,64.31
2023-02-19T23:09:17.596Z,64.05
2023-02-19T23:11:44.919Z,64.39
2023-02-19T23:14:11.899Z,65.04
2023-02-19T23:16:38.659Z,65.71
2023-02-19T23:19:07.449Z,66.09
2023-02-19T23:21:34.376Z,66.13
2023-02-19T23:24:01.152Z,66.45
2023-02-19T23:26:27.764Z,67.76
2023-02-19T23:28:54.391Z,68.11
2023-02-19T23:31:21.106Z,68.48
2023-02-19T23:33:47.897Z,69.91
2023-02-19T23:36:15.461Z,70.49
2023-02-19T23:38:46.130Z,70.37
2023-02-19T23:41:15.608Z,70.91
2023-02-19T23:43:42.282Z,72.31
2023-02-19T23:46:09.506Z,73.27
2023-02-19T23:48:36.233Z,73.96
2023-02-19T23:51:02.913Z,74.88
2023-02-19T23:53:29.493Z,76.24
2023-02-19T23:55:56.366Z,75.85
2023-02-19T23:58:23.121Z,76.85
